Delhi, Canada
Current Conditions -  °F | °C
As of 11:00 PM on Tuesday 27 Jan 2015 (Local Time) from CYXU Reporting Station
Clear Clear  
Wind Chill: -3°   Ceiling: Unl
Heat Index:   Visibility: 15mi
Dew Point:   Wind: 6mph
Humidity: 79%   Direction: 340°NNW
Pressure: 30.15"   Gusts: NA
Location:  42.85°N, 80.49°W
Report Text: CYXU 280400Z 34005KT 15SM SKC M14/M17 A3015 RMK FROIN SLP229
Loading
Personal Weather Stations






























Interactive Weather Map New forecast layout! Learn more

10-Day Weather Forecast

Advertisements
Track Severe Weather on mobile